Fernandina Beach Muni Information

FAA: FHB - ICAO: KFHB

Fernandina Beach Muni (Airport) Location

State Florida
County Nassau
City Fernandina Beach
Fernandina Beach Muni (Airport) is 3 miles south of Fernandina Beach, FL.
Latitude 30-36-42.6000N
Longitude 081-27-40.3000W
Elevation 15ft

Fernandina Beach Muni METARs

METAR KFHB 261015Z AUTO 17006KT 10SM CLR 24/22 A3012 RMK AO2 T02430216
Altimeter 30.12"
Temperature 24.3°C (75.7°F)
Wind 170° at 6KT
Clouds Skies are clear.
Visibility 10.0mi
Time observed: 2022-05-26T10:15:00Z

Fernandina Beach Muni (Airport) Details

Status Operational
Activation October 1944
Ownership Public
Usage Public
Chart JACKSONVILLE
ATC on-site No
Beacon schedule sunset-sunrise
Beacon color clear green

Fernandina Beach Muni (Airport) Contacts

Owner CITY OF FERNANDINA BEACH
Owner address 204 ASH ST, FERNANDINA BEACH, FL 32034
Owner phone (904) 310-3100
Manager MIKE O'LEARY
Manager address 52102 TAMIAMI TRL E, OCHOPEE, FL 34141
Manager phone (239) 719-0074

Fernandina Beach Muni Radio Frequencies

Fernandina Beach Muni (Airport) Radio Frequencies

UNICOM 122.7
Common traffic advisory frequency (CTAF) 122.7